createdAt,value
2023-02-28T00:02:54.383Z,13.72
2023-02-28T00:05:56.500Z,13.68
2023-02-28T00:08:58.887Z,13.60
2023-02-28T00:12:04.668Z,13.49
2023-02-28T00:15:08.928Z,13.53
2023-02-28T00:18:11.002Z,13.83
2023-02-28T00:21:13.754Z,13.73
2023-02-28T00:24:17.091Z,13.56
2023-02-28T00:27:19.190Z,13.56
2023-02-28T00:30:23.792Z,13.68
2023-02-28T00:33:25.880Z,13.64
2023-02-28T00:36:29.749Z,13.75
2023-02-28T00:39:32.483Z,13.61
2023-02-28T00:42:35.988Z,13.47
2023-02-28T00:45:38.043Z,13.67
2023-02-28T00:48:40.146Z,13.79
2023-02-28T00:51:44.184Z,13.59
2023-02-28T00:54:46.207Z,13.64
2023-02-28T00:57:50.390Z,13.54
2023-02-28T01:00:53.843Z,13.48
2023-02-28T01:03:56.068Z,13.48
2023-02-28T01:06:58.280Z,13.55
2023-02-28T01:10:00.553Z,13.40
2023-02-28T01:13:02.580Z,13.47
2023-02-28T01:16:05.005Z,13.43
2023-02-28T01:19:08.919Z,13.44
2023-02-28T01:22:11.217Z,13.57
2023-02-28T01:25:14.037Z,13.55
2023-02-28T01:28:16.145Z,13.42
2023-02-28T01:31:19.379Z,13.53
2023-02-28T01:34:21.475Z,13.63
2023-02-28T01:37:23.506Z,13.54
2023-02-28T01:40:25.521Z,13.49
2023-02-28T01:43:50.491Z,13.32
2023-02-28T01:46:52.527Z,13.43
2023-02-28T01:49:54.933Z,13.48
2023-02-28T01:53:01.108Z,13.43
2023-02-28T01:56:10.094Z,13.51
2023-02-28T01:59:16.082Z,13.36
2023-02-28T02:02:20.321Z,13.36
2023-02-28T02:05:29.686Z,13.47
2023-02-28T02:08:31.757Z,13.28
2023-02-28T02:11:35.558Z,13.35
2023-02-28T02:14:44.814Z,13.46
2023-02-28T02:17:52.861Z,13.48
2023-02-28T02:21:25.882Z,13.55
2023-02-28T02:24:56.984Z,13.53
2023-02-28T02:28:23.477Z,13.33
2023-02-28T02:32:10.282Z,13.40
2023-02-28T02:35:34.995Z,13.36
2023-02-28T02:38:47.121Z,13.46
2023-02-28T02:41:54.619Z,13.22
2023-02-28T02:45:08.443Z,13.33
2023-02-28T02:48:16.880Z,13.38
2023-02-28T02:51:23.054Z,13.39
2023-02-28T02:54:29.897Z,13.34
2023-02-28T02:57:53.772Z,13.34
2023-02-28T03:01:00.744Z,13.11
2023-02-28T03:04:07.972Z,13.23
2023-02-28T03:07:10.703Z,13.27
2023-02-28T03:10:36.687Z,13.40
2023-02-28T03:13:44.048Z,13.31
2023-02-28T03:17:05.054Z,13.21
2023-02-28T03:20:19.218Z,13.28
2023-02-28T03:23:35.917Z,13.21
2023-02-28T03:26:46.518Z,13.21
2023-02-28T03:30:04.462Z,13.11
2023-02-28T03:33:38.056Z,13.24
2023-02-28T03:36:47.062Z,13.20
2023-02-28T03:39:57.674Z,13.33
2023-02-28T03:43:09.482Z,13.62
2023-02-28T03:46:16.164Z,13.46
2023-02-28T03:49:26.015Z,13.60
2023-02-28T03:52:34.806Z,13.67
2023-02-28T03:55:43.914Z,13.81
2023-02-28T03:58:58.273Z,13.73
2023-02-28T04:02:00.894Z,13.65
2023-02-28T04:05:03.159Z,13.72
2023-02-28T04:08:09.269Z,13.52
2023-02-28T04:11:19.837Z,13.30
2023-02-28T04:14:21.822Z,13.39
2023-02-28T04:17:23.888Z,13.24
2023-02-28T04:20:25.940Z,13.26
2023-02-28T04:23:27.871Z,13.25
2023-02-28T04:26:34.741Z,13.26
2023-02-28T04:29:37.099Z,13.37
2023-02-28T04:32:39.195Z,13.01
2023-02-28T04:35:41.322Z,13.14
2023-02-28T04:38:43.309Z,13.30
2023-02-28T04:41:46.549Z,13.16
2023-02-28T04:44:48.582Z,14.01
2023-02-28T04:47:50.811Z,14.61
2023-02-28T04:50:53.290Z,15.38
2023-02-28T04:53:56.075Z,15.52
2023-02-28T04:56:58.607Z,15.64
2023-02-28T05:00:00.974Z,15.54
2023-02-28T05:03:03.201Z,15.03
2023-02-28T05:06:05.452Z,14.84
2023-02-28T05:09:07.447Z,14.61
2023-02-28T05:12:10.864Z,14.56
2023-02-28T05:15:15.141Z,14.41
2023-02-28T05:18:17.196Z,14.52
2023-02-28T05:21:32.323Z,14.51
2023-02-28T05:24:34.490Z,14.46
2023-02-28T05:27:36.439Z,14.57
2023-02-28T05:30:38.487Z,14.63
2023-02-28T05:33:42.034Z,14.65
2023-02-28T05:36:44.279Z,14.44
2023-02-28T05:39:46.335Z,14.38
2023-02-28T05:42:50.994Z,14.65
2023-02-28T05:45:53.510Z,14.94
2023-02-28T05:48:57.276Z,15.12
2023-02-28T05:51:59.617Z,15.24
2023-02-28T05:55:01.773Z,15.32
2023-02-28T05:58:04.002Z,15.60
2023-02-28T06:01:33.784Z,15.36
2023-02-28T06:04:36.149Z,15.84
2023-02-28T06:07:38.086Z,15.78
2023-02-28T06:10:40.286Z,15.70
2023-02-28T06:13:42.813Z,15.85
2023-02-28T06:16:45.295Z,15.80
2023-02-28T06:19:49.096Z,16.01
2023-02-28T06:22:55.570Z,15.95
2023-02-28T06:26:00.590Z,15.80
2023-02-28T06:29:02.659Z,15.85
2023-02-28T06:32:04.830Z,15.85
2023-02-28T06:35:07.265Z,15.91
2023-02-28T06:38:09.270Z,15.94
2023-02-28T06:41:11.909Z,16.15
2023-02-28T06:44:18.245Z,16.16
2023-02-28T06:47:20.386Z,16.42
2023-02-28T06:50:24.910Z,16.50
2023-02-28T06:53:26.972Z,16.37
2023-02-28T06:56:29.132Z,16.30
2023-02-28T06:59:31.296Z,16.11
2023-02-28T07:02:33.575Z,15.93
2023-02-28T07:05:39.640Z,15.84
2023-02-28T07:08:42.912Z,16.02
2023-02-28T07:11:44.966Z,15.89
2023-02-28T07:14:46.986Z,15.82
2023-02-28T07:17:49.228Z,15.94
2023-02-28T07:20:51.633Z,15.85
2023-02-28T07:23:53.694Z,15.71
2023-02-28T07:26:56.344Z,15.68
2023-02-28T07:29:58.387Z,15.67
2023-02-28T07:33:00.386Z,15.75
2023-02-28T07:36:10.694Z,15.60
2023-02-28T07:39:12.747Z,15.57
2023-02-28T07:42:14.735Z,15.62
2023-02-28T07:45:16.703Z,15.53
2023-02-28T07:48:18.708Z,15.75
2023-02-28T07:51:20.818Z,15.87
2023-02-28T07:54:22.792Z,15.95
2023-02-28T07:57:25.242Z,15.85
2023-02-28T08:00:27.383Z,15.88
2023-02-28T08:03:29.418Z,15.88
2023-02-28T08:06:31.316Z,15.90
2023-02-28T08:09:33.549Z,16.07
2023-02-28T08:12:35.482Z,16.14
2023-02-28T08:15:37.526Z,16.02
2023-02-28T08:18:39.565Z,16.34
2023-02-28T08:21:41.504Z,16.24
2023-02-28T08:24:44.734Z,16.25
2023-02-28T08:27:47.075Z,16.39
2023-02-28T08:30:50.046Z,16.35
2023-02-28T08:33:53.901Z,16.25
2023-02-28T08:36:56.743Z,16.10
2023-02-28T08:39:58.778Z,16.02
2023-02-28T08:43:18.233Z,15.95
2023-02-28T08:46:25.485Z,15.91
2023-02-28T08:49:27.765Z,15.94
2023-02-28T08:52:29.862Z,15.96
2023-02-28T08:55:31.916Z,15.90
2023-02-28T08:58:35.498Z,15.88
2023-02-28T09:01:37.953Z,16.00
2023-02-28T09:04:40.063Z,15.69
2023-02-28T09:07:42.148Z,15.64
2023-02-28T09:10:44.166Z,15.66
2023-02-28T09:13:46.860Z,15.95
2023-02-28T09:16:49.051Z,16.22
2023-02-28T09:19:51.162Z,16.05
2023-02-28T09:22:53.210Z,16.18
2023-02-28T09:25:56.127Z,15.89
2023-02-28T09:28:59.998Z,15.70
2023-02-28T09:32:03.007Z,15.43
2023-02-28T09:35:05.909Z,15.76
2023-02-28T09:38:11.251Z,15.57
2023-02-28T09:41:20.151Z,15.28
2023-02-28T09:44:32.816Z,15.17
2023-02-28T09:47:40.738Z,15.28
2023-02-28T09:51:01.828Z,15.35
2023-02-28T09:54:04.164Z,15.50
2023-02-28T09:57:08.748Z,15.40
2023-02-28T10:00:26.119Z,15.27
2023-02-28T10:03:41.263Z,15.13
2023-02-28T10:06:51.422Z,15.15
2023-02-28T10:09:57.580Z,15.08
2023-02-28T10:13:05.738Z,15.17
2023-02-28T10:16:44.716Z,15.30
2023-02-28T10:20:20.983Z,15.83
2023-02-28T10:23:29.369Z,16.13
2023-02-28T10:26:33.658Z,16.24
2023-02-28T10:29:37.134Z,16.46
2023-02-28T10:32:41.243Z,16.36
2023-02-28T10:35:43.499Z,16.18
2023-02-28T10:38:47.041Z,16.11
2023-02-28T10:41:49.097Z,16.01
2023-02-28T10:45:05.178Z,16.03
2023-02-28T10:48:10.263Z,15.94
2023-02-28T10:51:15.487Z,16.00
2023-02-28T10:54:22.998Z,15.88
2023-02-28T10:57:25.686Z,15.94
2023-02-28T11:00:34.965Z,16.00
2023-02-28T11:03:36.998Z,16.01
2023-02-28T11:06:40.679Z,16.00
2023-02-28T11:09:44.758Z,15.97
2023-02-28T11:12:52.680Z,16.11
2023-02-28T11:16:01.195Z,16.01
2023-02-28T11:19:07.810Z,16.04
2023-02-28T11:22:12.044Z,15.97
2023-02-28T11:25:25.414Z,15.82
2023-02-28T11:28:36.735Z,15.92
2023-02-28T11:31:38.755Z,15.92
2023-02-28T11:34:42.212Z,16.11
2023-02-28T11:37:46.895Z,16.03
2023-02-28T11:40:58.579Z,16.09
2023-02-28T11:44:06.548Z,16.18
2023-02-28T11:47:46.575Z,16.11
2023-02-28T11:50:48.701Z,16.21
2023-02-28T11:53:56.748Z,16.00
2023-02-28T11:57:04.421Z,15.67
2023-02-28T12:00:31.367Z,15.68
2023-02-28T12:03:52.062Z,15.83
2023-02-28T12:07:12.943Z,16.07
2023-02-28T12:10:15.171Z,15.79
2023-02-28T12:13:20.484Z,15.99
2023-02-28T12:16:48.670Z,15.94
2023-02-28T12:20:18.331Z,15.73
2023-02-28T12:23:32.426Z,15.57
2023-02-28T12:26:43.831Z,15.49
2023-02-28T12:30:00.300Z,15.26
2023-02-28T12:33:09.487Z,15.90
2023-02-28T12:36:18.491Z,16.32
2023-02-28T12:39:49.757Z,16.66
2023-02-28T12:42:59.423Z,16.18
2023-02-28T12:46:09.636Z,15.84
2023-02-28T12:49:20.546Z,15.57
2023-02-28T12:52:47.659Z,15.37
2023-02-28T12:56:19.792Z,15.13
2023-02-28T12:59:24.661Z,15.20
2023-02-28T13:02:45.367Z,15.19
2023-02-28T13:06:04.608Z,15.21
2023-02-28T13:09:06.674Z,15.21
2023-02-28T13:12:16.512Z,15.20
2023-02-28T13:15:29.679Z,15.15
2023-02-28T13:18:40.763Z,15.00
2023-02-28T13:21:45.915Z,14.94
2023-02-28T13:24:50.748Z,15.00
2023-02-28T13:28:02.113Z,14.95
2023-02-28T13:31:06.562Z,15.08
2023-02-28T13:34:17.096Z,15.10
2023-02-28T13:37:18.964Z,15.09
2023-02-28T13:40:38.271Z,15.82
2023-02-28T13:44:13.225Z,15.98
2023-02-28T13:47:23.383Z,16.03
2023-02-28T13:50:28.073Z,16.05
2023-02-28T13:54:00.342Z,16.10
2023-02-28T13:57:21.113Z,16.33
2023-02-28T14:00:32.747Z,16.32
2023-02-28T14:03:53.392Z,16.30
2023-02-28T14:06:58.351Z,16.28
2023-02-28T14:10:06.719Z,16.26
2023-02-28T14:13:45.752Z,16.23
2023-02-28T14:16:52.332Z,16.16
2023-02-28T14:19:54.613Z,16.15
2023-02-28T14:23:31.359Z,16.13
2023-02-28T14:26:55.046Z,16.25
2023-02-28T14:30:08.160Z,16.04
2023-02-28T14:33:35.852Z,16.00
2023-02-28T14:36:44.573Z,16.07
2023-02-28T14:39:50.662Z,15.87
2023-02-28T14:43:04.964Z,15.79
2023-02-28T14:46:08.391Z,15.79
2023-02-28T14:49:25.895Z,15.82
2023-02-28T14:52:30.856Z,15.87
2023-02-28T14:55:36.275Z,15.70
2023-02-28T14:58:38.657Z,15.79
2023-02-28T15:01:40.643Z,15.75
2023-02-28T15:04:43.190Z,16.10
2023-02-28T15:07:46.730Z,16.19
2023-02-28T15:11:09.089Z,16.14
2023-02-28T15:14:19.047Z,16.09
2023-02-28T15:17:28.796Z,15.94
2023-02-28T15:20:30.883Z,15.97
2023-02-28T15:23:35.348Z,15.76
2023-02-28T15:26:42.057Z,15.48
2023-02-28T15:29:52.531Z,15.38
2023-02-28T15:33:13.117Z,15.61
2023-02-28T15:36:22.003Z,15.78
2023-02-28T15:39:28.237Z,15.83
2023-02-28T15:42:30.983Z,15.83
2023-02-28T15:45:45.643Z,15.70
2023-02-28T15:48:57.152Z,15.67
2023-02-28T15:52:01.737Z,15.54
2023-02-28T15:55:13.966Z,15.41
2023-02-28T15:58:16.238Z,15.29
2023-02-28T16:01:35.060Z,15.16
2023-02-28T16:04:38.212Z,15.27
2023-02-28T16:07:43.195Z,15.26
2023-02-28T16:10:45.566Z,15.26
2023-02-28T16:13:47.774Z,15.17
2023-02-28T16:16:54.515Z,15.19
2023-02-28T16:19:57.208Z,15.14
2023-02-28T16:23:02.553Z,15.06
2023-02-28T16:26:06.605Z,15.15
2023-02-28T16:29:11.720Z,14.99
2023-02-28T16:32:16.749Z,14.88
2023-02-28T16:35:20.322Z,14.98
2023-02-28T16:38:24.804Z,14.92
2023-02-28T16:41:29.643Z,14.89
2023-02-28T16:44:36.870Z,14.81
2023-02-28T16:47:39.905Z,14.72
2023-02-28T16:50:42.636Z,14.66
2023-02-28T16:53:46.460Z,14.46
2023-02-28T16:56:52.113Z,14.43
2023-02-28T16:59:56.786Z,14.48
2023-02-28T17:03:01.097Z,14.46
2023-02-28T17:06:03.910Z,14.60
2023-02-28T17:09:05.958Z,14.20
2023-02-28T17:12:09.430Z,14.72
2023-02-28T17:15:13.291Z,14.91
2023-02-28T17:18:20.014Z,15.09
2023-02-28T17:21:22.129Z,15.23
2023-02-28T17:24:30.870Z,15.35
2023-02-28T17:27:36.728Z,15.07
2023-02-28T17:30:39.150Z,14.76
2023-02-28T17:33:42.196Z,15.01
2023-02-28T17:36:44.757Z,15.18
2023-02-28T17:39:47.237Z,15.15
2023-02-28T17:43:32.496Z,15.02
2023-02-28T17:46:34.939Z,14.96
2023-02-28T17:49:43.346Z,15.12
2023-02-28T17:52:45.432Z,14.92
2023-02-28T17:55:52.710Z,14.89
2023-02-28T17:58:57.272Z,14.87
2023-02-28T18:02:02.213Z,14.74
2023-02-28T18:05:06.640Z,14.66
2023-02-28T18:08:11.659Z,14.52
2023-02-28T18:11:22.152Z,14.49
2023-02-28T18:14:26.605Z,14.50
2023-02-28T18:17:31.313Z,14.36
2023-02-28T18:20:37.681Z,14.44
2023-02-28T18:23:47.781Z,14.32
2023-02-28T18:26:49.754Z,14.28
2023-02-28T18:29:52.904Z,14.18
2023-02-28T18:32:54.890Z,14.35
2023-02-28T18:35:57.939Z,14.16
2023-02-28T18:39:00.069Z,14.05
2023-02-28T18:42:02.325Z,13.92
2023-02-28T18:45:05.013Z,14.08
2023-02-28T18:48:09.494Z,13.88
2023-02-28T18:51:20.144Z,14.09
2023-02-28T18:54:22.588Z,13.85
2023-02-28T18:57:25.067Z,13.88
2023-02-28T19:00:27.310Z,14.02
2023-02-28T19:03:31.945Z,13.92
2023-02-28T19:06:35.107Z,13.92
2023-02-28T19:09:37.235Z,14.12
2023-02-28T19:12:40.063Z,14.24
2023-02-28T19:15:42.171Z,13.96
2023-02-28T19:18:44.871Z,14.05
2023-02-28T19:21:47.053Z,14.80
2023-02-28T19:24:51.128Z,15.76
2023-02-28T19:27:54.851Z,16.60
2023-02-28T19:30:59.591Z,16.45
2023-02-28T19:34:02.105Z,16.67
2023-02-28T19:37:04.475Z,16.74
2023-02-28T19:40:11.239Z,16.82
2023-02-28T19:43:14.886Z,16.70
2023-02-28T19:46:17.478Z,17.19
2023-02-28T19:49:19.501Z,17.28
2023-02-28T19:52:22.645Z,17.24
2023-02-28T19:55:25.039Z,17.54
2023-02-28T19:58:29.140Z,17.99
2023-02-28T20:01:31.348Z,17.97
2023-02-28T20:04:33.424Z,17.99
2023-02-28T20:07:35.827Z,18.35
2023-02-28T20:10:40.828Z,18.05
2023-02-28T20:13:43.437Z,18.32
2023-02-28T20:16:46.168Z,17.99
2023-02-28T20:19:48.633Z,17.96
2023-02-28T20:22:51.527Z,17.91
2023-02-28T20:25:54.317Z,18.06
2023-02-28T20:28:56.991Z,18.12
2023-02-28T20:31:59.471Z,18.19
2023-02-28T20:35:01.565Z,17.89
2023-02-28T20:38:03.596Z,18.08
2023-02-28T20:41:47.780Z,18.13
2023-02-28T20:44:50.162Z,18.31
2023-02-28T20:47:52.393Z,19.47
2023-02-28T20:50:59.945Z,18.59
2023-02-28T20:54:04.556Z,19.09
2023-02-28T20:57:08.091Z,20.07
2023-02-28T21:00:16.460Z,18.93
2023-02-28T21:03:18.522Z,18.43
2023-02-28T21:06:23.414Z,19.90
2023-02-28T21:09:25.481Z,20.23
2023-02-28T21:12:27.772Z,18.94
2023-02-28T21:15:30.066Z,19.87
2023-02-28T21:18:35.036Z,20.08
2023-02-28T21:21:40.169Z,19.05
2023-02-28T21:24:45.137Z,19.36
2023-02-28T21:27:48.586Z,19.87
2023-02-28T21:30:50.960Z,19.61
2023-02-28T21:33:54.835Z,19.10
2023-02-28T21:36:57.093Z,19.89
2023-02-28T21:39:59.196Z,19.97
2023-02-28T21:43:01.270Z,19.25
2023-02-28T21:46:06.573Z,19.96
2023-02-28T21:49:08.863Z,20.16
2023-02-28T21:52:11.719Z,19.19
2023-02-28T21:55:13.780Z,19.45
2023-02-28T21:58:16.292Z,20.20
2023-02-28T22:01:21.520Z,19.60
2023-02-28T22:04:23.851Z,19.19
2023-02-28T22:07:26.063Z,20.37
2023-02-28T22:10:28.016Z,19.75
2023-02-28T22:13:30.385Z,19.35
2023-02-28T22:16:49.566Z,19.97
2023-02-28T22:19:53.046Z,20.27
2023-02-28T22:22:55.354Z,19.32
2023-02-28T22:26:00.261Z,19.60
2023-02-28T22:29:02.375Z,19.93
2023-02-28T22:32:04.678Z,19.06
2023-02-28T22:35:07.964Z,18.70
2023-02-28T22:38:11.163Z,19.30
2023-02-28T22:41:14.285Z,19.00
2023-02-28T22:44:16.638Z,18.27
2023-02-28T22:47:18.977Z,19.20
2023-02-28T22:50:21.042Z,19.11
2023-02-28T22:53:23.057Z,18.36
2023-02-28T22:56:27.407Z,19.27
2023-02-28T22:59:30.445Z,19.57
2023-02-28T23:02:33.179Z,18.63
2023-02-28T23:05:35.202Z,18.48
2023-02-28T23:08:37.276Z,19.99
2023-02-28T23:11:44.980Z,19.45
2023-02-28T23:14:47.057Z,18.25
2023-02-28T23:17:50.614Z,20.08
2023-02-28T23:20:52.670Z,19.93
2023-02-28T23:23:54.977Z,19.07
2023-02-28T23:26:59.318Z,19.73
2023-02-28T23:30:03.123Z,20.69
2023-02-28T23:33:06.876Z,19.82
2023-02-28T23:36:15.999Z,19.64
2023-02-28T23:39:19.171Z,20.71
2023-02-28T23:42:21.274Z,20.66
2023-02-28T23:45:23.458Z,19.68
2023-02-28T23:48:25.412Z,20.71
2023-02-28T23:51:27.418Z,20.98
2023-02-28T23:54:29.943Z,20.31
2023-02-28T23:57:31.942Z,20.29
